Time;durP1;ratioP1;P1;durP2;ratioP2;P2;SDS_P1;SDS_P2;PMS_P1;PMS_P2;Temp;Humidity;BMP_temperature;BMP_pressure;BME280_temperature;BME280_humidity;BME280_pressure;Samples;Min_cycle;Max_cycle;Signal;HPM_P1;HPM_P2
2023/08/27 00:01:25;;;;;;;7.70;6.97;;;13.30;99.90;;;;;;5067903;28;20135;-83
2023/08/27 00:03:51;;;;;;;8.05;7.25;;;13.30;99.90;;;;;;5067909;28;20387;-83
2023/08/27 00:06:17;;;;;;;7.93;7.15;;;13.20;99.90;;;;;;5069097;28;20370;-83
2023/08/27 00:08:42;;;;;;;7.30;6.70;;;13.20;99.90;;;;;;5073347;28;20089;-84
2023/08/27 00:11:08;;;;;;;7.38;6.68;;;13.20;99.90;;;;;;5070873;28;20048;-83
2023/08/27 00:13:33;;;;;;;7.07;6.38;;;13.20;99.90;;;;;;5088107;28;20062;-83
2023/08/27 00:15:59;;;;;;;7.70;7.05;;;13.20;99.90;;;;;;5087509;28;20480;-83
2023/08/27 00:18:25;;;;;;;7.72;6.93;;;13.20;99.90;;;;;;5070185;28;20040;-83
2023/08/27 00:20:50;;;;;;;7.88;7.07;;;13.20;99.90;;;;;;5081559;28;20044;-83
2023/08/27 00:23:16;;;;;;;8.00;6.60;;;13.10;99.90;;;;;;5078488;28;20036;-83
2023/08/27 00:25:45;;;;;;;8.27;7.57;;;13.10;99.90;;;;;;5067555;28;20199;-83
2023/08/27 00:28:14;;;;;;;7.90;7.13;;;13.00;99.90;;;;;;5068283;28;20230;-83
2023/08/27 00:30:40;;;;;;;7.70;7.10;;;13.10;99.90;;;;;;5067346;28;20147;-82
2023/08/27 00:33:06;;;;;;;8.38;7.05;;;13.10;99.90;;;;;;5067936;28;20123;-82
2023/08/27 00:35:31;;;;;;;8.25;7.50;;;13.10;99.90;;;;;;5076986;28;20179;-82
2023/08/27 00:37:57;;;;;;;7.97;7.28;;;13.00;99.90;;;;;;5065983;28;20044;-83
2023/08/27 00:40:23;;;;;;;8.15;7.35;;;13.00;99.90;;;;;;5070182;28;20470;-83
2023/08/27 00:42:48;;;;;;;8.25;7.55;;;13.00;99.90;;;;;;5085695;28;20109;-83
2023/08/27 00:45:14;;;;;;;7.82;7.13;;;13.00;99.90;;;;;;5084606;28;20781;-82
2023/08/27 00:47:39;;;;;;;8.65;7.85;;;13.00;99.90;;;;;;5075716;28;20048;-82
2023/08/27 00:50:09;;;;;;;9.07;8.20;;;13.00;99.90;;;;;;5067177;28;20040;-83
2023/08/27 00:52:35;;;;;;;9.02;8.13;;;13.00;99.90;;;;;;5066849;28;20048;-83
2023/08/27 00:55:01;;;;;;;7.68;6.93;;;13.00;99.90;;;;;;5067425;28;20055;-83
2023/08/27 00:57:28;;;;;;;8.05;7.30;;;13.00;99.90;;;;;;5066774;28;20045;-83
2023/08/27 00:59:58;;;;;;;8.63;7.50;;;13.00;99.90;;;;;;5067440;28;20254;-82
2023/08/27 01:02:24;;;;;;;8.63;7.82;;;13.00;99.90;;;;;;5067108;28;20685;-82
2023/08/27 01:04:50;;;;;;;8.68;7.95;;;13.00;99.90;;;;;;5067430;28;20064;-83
2023/08/27 01:07:27;;;;;;;8.55;7.75;;;13.00;99.90;;;;;;5067422;28;20490;-83
2023/08/27 01:10:17;;;;;;;8.07;7.43;;;13.10;99.90;;;;;;5068219;28;20496;-83
2023/08/27 01:12:59;;;;;;;8.43;7.63;;;13.00;99.90;;;;;;5072537;28;20055;-83
2023/08/27 01:15:27;;;;;;;8.40;7.63;;;13.10;99.90;;;;;;5075468;28;20053;-83
2023/08/27 01:17:54;;;;;;;8.57;7.88;;;13.10;99.90;;;;;;5067463;28;20077;-83
2023/08/27 01:20:20;;;;;;;8.73;7.97;;;13.10;99.90;;;;;;5067194;28;20055;-82
2023/08/27 01:22:45;;;;;;;9.73;8.82;;;13.20;99.90;;;;;;5073361;28;20048;-83
2023/08/27 01:25:12;;;;;;;9.75;8.75;;;13.20;99.90;;;;;;5080541;28;20036;-83
2023/08/27 01:27:49;;;;;;;8.77;7.93;;;13.20;99.90;;;;;;5084610;28;20116;-83
2023/08/27 01:30:17;;;;;;;8.77;7.93;;;13.30;99.90;;;;;;5083573;28;20047;-82
2023/08/27 01:32:56;;;;;;;9.75;8.55;;;13.30;99.90;;;;;;5070118;28;20040;-83
2023/08/27 01:35:22;;;;;;;8.52;7.70;;;13.30;99.90;;;;;;5076406;28;20048;-83
2023/08/27 01:37:48;;;;;;;9.15;8.25;;;13.50;99.90;;;;;;5085501;28;20724;-83
2023/08/27 01:40:13;;;;;;;8.23;7.63;;;13.40;99.90;;;;;;5102160;28;20059;-83
2023/08/27 01:42:39;;;;;;;8.50;7.65;;;13.40;99.90;;;;;;5072739;28;20522;-83
2023/08/27 01:45:06;;;;;;;9.57;8.68;;;13.40;99.90;;;;;;5083273;28;20048;-83
2023/08/27 01:47:32;;;;;;;9.52;8.45;;;13.50;99.90;;;;;;5084518;28;20058;-82
2023/08/27 01:49:58;;;;;;;8.50;7.70;;;13.40;99.90;;;;;;5070971;28;20041;-83
2023/08/27 01:52:23;;;;;;;10.18;8.65;;;13.40;99.90;;;;;;5076901;28;20553;-83
2023/08/27 01:54:49;;;;;;;8.73;7.93;;;13.40;99.90;;;;;;5070417;28;20391;-82
2023/08/27 01:57:14;;;;;;;8.52;7.72;;;13.40;99.90;;;;;;5071113;28;20414;-83
2023/08/27 01:59:40;;;;;;;8.90;7.97;;;13.40;99.90;;;;;;5071242;28;20048;-83
2023/08/27 02:02:06;;;;;;;8.60;7.90;;;13.40;99.90;;;;;;5087539;28;20378;-82
2023/08/27 02:04:31;;;;;;;9.70;8.80;;;13.40;99.90;;;;;;5069734;28;20044;-82
2023/08/27 02:06:57;;;;;;;9.63;8.65;;;13.40;99.90;;;;;;5083017;28;20797;-82
2023/08/27 02:09:22;;;;;;;7.95;7.15;;;13.40;99.90;;;;;;5083161;28;20037;-83
2023/08/27 02:11:49;;;;;;;9.85;8.95;;;13.40;99.90;;;;;;5075002;28;20055;-81
2023/08/27 02:14:15;;;;;;;9.85;8.95;;;13.30;99.90;;;;;;5072793;28;20548;-83
2023/08/27 02:16:41;;;;;;;10.30;8.82;;;13.30;99.90;;;;;;5085573;28;20036;-83
2023/08/27 02:19:06;;;;;;;9.85;8.88;;;13.30;99.90;;;;;;5081973;28;20055;-83
2023/08/27 02:21:32;;;;;;;9.63;8.70;;;13.30;99.90;;;;;;5069179;28;20702;-83
2023/08/27 02:23:58;;;;;;;9.25;8.48;;;13.20;99.90;;;;;;5071196;28;20043;-83
2023/08/27 02:26:23;;;;;;;8.63;7.93;;;13.20;99.90;;;;;;5086422;28;20486;-82
2023/08/27 02:28:49;;;;;;;9.98;8.93;;;13.20;99.90;;;;;;5071282;28;20135;-83
2023/08/27 02:31:14;;;;;;;10.52;9.43;;;13.10;99.90;;;;;;5071260;28;20045;-83
2023/08/27 02:33:40;;;;;;;9.50;8.70;;;13.10;99.90;;;;;;5071218;28;20052;-83
2023/08/27 02:36:06;;;;;;;9.57;8.57;;;13.00;99.90;;;;;;5072826;28;20044;-83
2023/08/27 02:38:33;;;;;;;9.38;8.52;;;13.00;99.90;;;;;;5084174;28;20059;-83
2023/08/27 02:40:58;;;;;;;9.13;8.32;;;13.00;99.90;;;;;;5069928;28;20048;-82
2023/08/27 02:43:24;;;;;;;9.48;8.48;;;13.00;99.90;;;;;;5070398;28;20451;-82
2023/08/27 02:45:50;;;;;;;9.85;8.95;;;12.90;99.90;;;;;;5084623;28;20055;-83
2023/08/27 02:48:16;;;;;;;9.05;8.15;;;12.90;99.90;;;;;;5075057;28;20059;-83
2023/08/27 02:50:41;;;;;;;8.88;7.97;;;12.90;99.90;;;;;;5083172;28;20048;-83
2023/08/27 02:53:07;;;;;;;9.50;8.60;;;12.90;99.90;;;;;;5078953;28;20055;-83
2023/08/27 02:55:33;;;;;;;10.02;8.88;;;12.90;99.90;;;;;;5081724;28;20058;-83
2023/08/27 02:57:58;;;;;;;9.50;8.60;;;12.80;99.90;;;;;;5054305;28;20044;-83
2023/08/27 03:00:25;;;;;;;9.90;8.95;;;12.90;99.90;;;;;;5086536;28;20051;-82
2023/08/27 03:02:51;;;;;;;9.77;8.90;;;12.90;99.90;;;;;;5077245;28;20051;-83
2023/08/27 03:05:17;;;;;;;10.43;9.07;;;12.90;99.90;;;;;;5083327;28;20393;-82
2023/08/27 03:07:43;;;;;;;10.20;9.30;;;12.90;99.90;;;;;;5087590;28;20482;-83
2023/08/27 03:10:09;;;;;;;9.45;8.55;;;12.90;99.90;;;;;;5076418;28;20042;-83
2023/08/27 03:12:34;;;;;;;8.50;7.80;;;12.90;99.90;;;;;;5069646;28;20041;-83
2023/08/27 03:15:00;;;;;;;9.20;8.30;;;13.00;99.90;;;;;;5069107;28;20082;-83
2023/08/27 03:17:26;;;;;;;8.82;8.02;;;12.90;99.90;;;;;;5072308;28;20040;-83
2023/08/27 03:19:51;;;;;;;9.05;8.27;;;13.00;99.90;;;;;;5068111;28;20087;-83
2023/08/27 03:22:17;;;;;;;9.88;8.80;;;13.00;99.90;;;;;;5069099;28;20573;-83
2023/08/27 03:24:43;;;;;;;9.73;8.80;;;13.00;99.90;;;;;;5066667;28;20115;-83
2023/08/27 03:27:08;;;;;;;9.63;8.73;;;13.00;99.90;;;;;;5076251;28;20139;-83
2023/08/27 03:29:34;;;;;;;9.07;8.27;;;13.10;99.90;;;;;;5074718;28;20056;-83
2023/08/27 03:31:59;;;;;;;9.35;8.45;;;13.10;99.90;;;;;;5071025;28;20061;-83
2023/08/27 03:34:25;;;;;;;10.55;8.68;;;13.10;99.90;;;;;;5078991;28;20048;-83
2023/08/27 03:36:51;;;;;;;9.35;8.48;;;13.20;99.90;;;;;;5077306;28;20470;-82
2023/08/27 03:39:16;;;;;;;9.32;8.40;;;13.00;99.90;;;;;;5089337;28;20047;-83
2023/08/27 03:41:42;;;;;;;9.10;8.30;;;13.20;99.90;;;;;;5084270;28;20059;-83
2023/08/27 03:44:07;;;;;;;9.40;8.48;;;13.40;99.90;;;;;;5068516;28;20410;-83
2023/08/27 03:46:33;;;;;;;9.00;8.10;;;13.30;99.90;;;;;;5084514;28;20087;-83
2023/08/27 03:49:00;;;;;;;9.10;8.20;;;13.30;99.90;;;;;;5086453;28;20044;-83
2023/08/27 03:51:28;;;;;;;8.90;8.00;;;13.30;99.90;;;;;;5089166;28;20044;-83
2023/08/27 03:53:57;;;;;;;8.48;7.75;;;13.30;99.90;;;;;;5081517;28;20147;-82
2023/08/27 03:56:24;;;;;;;8.00;7.30;;;13.30;99.90;;;;;;5069828;28;20081;-82
2023/08/27 03:58:49;;;;;;;8.85;8.05;;;13.30;99.90;;;;;;5070895;28;20040;-82
2023/08/27 04:01:15;;;;;;;8.43;7.72;;;13.30;99.90;;;;;;5070373;28;20098;-82
2023/08/27 04:03:41;;;;;;;8.57;7.78;;;13.40;99.90;;;;;;5073378;28;20051;-82
2023/08/27 04:06:07;;;;;;;8.38;7.32;;;13.40;99.90;;;;;;5088800;28;20040;-83
2023/08/27 04:08:33;;;;;;;7.82;7.13;;;13.40;99.90;;;;;;5088541;28;20040;-82
2023/08/27 04:11:00;;;;;;;8.50;7.57;;;13.40;99.90;;;;;;5085614;28;20089;-82
2023/08/27 04:13:25;;;;;;;8.75;7.85;;;13.40;99.90;;;;;;5069960;28;20083;-82
2023/08/27 04:16:08;;;;;;;8.27;7.30;;;13.30;99.90;;;;;;5069053;28;20100;-82
2023/08/27 04:18:34;;;;;;;;;;;13.30;99.90;;;;;;5071248;28;20044;-82
2023/08/27 04:21:00;;;;;;;7.68;6.90;;;13.20;99.90;;;;;;5084393;28;20293;-82
2023/08/27 04:23:26;;;;;;;8.27;6.90;;;13.20;99.90;;;;;;5050643;28;20044;-83
2023/08/27 04:25:52;;;;;;;8.00;7.20;;;13.20;99.90;;;;;;5083142;28;20040;-82
2023/08/27 04:28:18;;;;;;;6.95;6.43;;;13.20;99.90;;;;;;5087422;28;20407;-82
2023/08/27 04:30:46;;;;;;;7.85;7.18;;;13.10;99.90;;;;;;5066835;28;20047;-82
2023/08/27 04:33:12;;;;;;;8.32;7.63;;;13.10;99.90;;;;;;5073851;28;20418;-83
2023/08/27 04:35:38;;;;;;;7.68;7.03;;;13.10;99.90;;;;;;5072190;28;20048;-82
2023/08/27 04:38:05;;;;;;;8.00;7.18;;;13.00;99.90;;;;;;5085214;28;20486;-82
2023/08/27 04:40:30;;;;;;;7.85;7.03;;;13.00;99.90;;;;;;5087657;28;20040;-82
2023/08/27 04:42:57;;;;;;;7.90;7.13;;;12.90;99.90;;;;;;5080393;28;20058;-83
2023/08/27 04:45:23;;;;;;;7.90;7.10;;;13.00;99.90;;;;;;5079015;28;20044;-82
2023/08/27 04:47:49;;;;;;;7.55;6.85;;;12.90;99.90;;;;;;5077436;28;20091;-83
2023/08/27 04:50:14;;;;;;;8.15;7.28;;;12.90;99.90;;;;;;5068513;28;20418;-84
2023/08/27 04:52:40;;;;;;;7.75;7.07;;;12.90;99.90;;;;;;5069415;28;20112;-83
2023/08/27 04:55:06;;;;;;;6.63;6.03;;;12.90;99.90;;;;;;5067351;28;20036;-83
2023/08/27 04:57:36;;;;;;;7.50;6.85;;;12.90;99.90;;;;;;5068876;28;20055;-83
2023/08/27 05:00:16;;;;;;;7.03;6.40;;;13.00;99.90;;;;;;5068086;28;20475;-83
2023/08/27 05:02:42;;;;;;;7.05;6.35;;;12.80;99.90;;;;;;5073974;28;20045;-83
2023/08/27 05:05:08;;;;;;;6.88;6.28;;;12.80;99.90;;;;;;5074803;28;20426;-83
2023/08/27 05:07:33;;;;;;;7.40;6.80;;;12.80;99.90;;;;;;5077158;28;20244;-83
2023/08/27 05:09:59;;;;;;;7.70;6.95;;;12.80;99.90;;;;;;5066943;28;20066;-83
2023/08/27 05:12:24;;;;;;;7.22;6.63;;;12.80;99.90;;;;;;5054317;28;20048;-83
2023/08/27 05:14:50;;;;;;;7.18;6.47;;;12.90;99.90;;;;;;5067293;28;20055;-83
2023/08/27 05:17:16;;;;;;;7.95;7.15;;;12.90;99.90;;;;;;5078229;28;20072;-83
2023/08/27 05:19:41;;;;;;;8.70;7.90;;;13.00;99.90;;;;;;5080536;28;20040;-83
2023/08/27 05:22:07;;;;;;;9.57;7.47;;;13.10;99.90;;;;;;5080297;28;20048;-82
2023/08/27 05:24:32;;;;;;;9.23;7.45;;;13.10;99.90;;;;;;5080522;28;20079;-84
2023/08/27 05:26:58;;;;;;;7.93;7.28;;;13.20;99.90;;;;;;5075306;28;20682;-84
2023/08/27 05:29:24;;;;;;;10.10;7.88;;;13.30;99.90;;;;;;5073582;28;20055;-83
2023/08/27 05:31:49;;;;;;;9.25;7.72;;;13.40;99.90;;;;;;5071022;28;20064;-82
2023/08/27 05:34:15;;;;;;;8.57;7.50;;;13.50;99.90;;;;;;5080789;28;20048;-84
2023/08/27 05:36:40;;;;;;;8.95;8.18;;;13.60;99.90;;;;;;5082524;28;20040;-83
2023/08/27 05:39:06;;;;;;;8.45;7.53;;;13.70;99.90;;;;;;5085857;28;20060;-86
2023/08/27 05:41:32;;;;;;;8.57;7.82;;;13.90;99.90;;;;;;5084359;28;20072;-84
2023/08/27 05:43:58;;;;;;;8.60;7.80;;;14.10;99.90;;;;;;5087444;28;20079;-84
2023/08/27 05:46:24;;;;;;;8.48;7.68;;;14.20;99.90;;;;;;5072323;28;20049;-85
2023/08/27 05:48:50;;;;;;;8.45;7.70;;;14.40;99.90;;;;;;5080917;28;20044;-83
2023/08/27 05:51:15;;;;;;;7.93;7.22;;;14.50;99.90;;;;;;5079329;28;20055;-84
2023/08/27 05:53:42;;;;;;;7.80;7.05;;;14.60;99.90;;;;;;5071241;28;20551;-85
2023/08/27 05:56:07;;;;;;;8.13;7.35;;;14.70;99.90;;;;;;5071277;28;20178;-84
2023/08/27 05:58:33;;;;;;;7.80;7.10;;;14.70;99.90;;;;;;5085635;28;20123;-84
2023/08/27 06:00:59;;;;;;;7.53;6.75;;;14.80;99.90;;;;;;5087645;28;20960;-83
2023/08/27 06:03:25;;;;;;;8.13;6.68;;;14.60;99.90;;;;;;5076127;28;20044;-84
2023/08/27 06:05:50;;;;;;;8.60;7.60;;;14.60;99.90;;;;;;5080097;28;20040;-83
2023/08/27 06:08:16;;;;;;;8.98;6.93;;;14.50;99.90;;;;;;5085999;28;20070;-85
2023/08/27 06:10:42;;;;;;;7.53;6.82;;;14.50;99.90;;;;;;5085608;28;20044;-83
2023/08/27 06:13:07;;;;;;;8.40;7.28;;;14.40;99.90;;;;;;5066459;28;20032;-83
2023/08/27 06:15:37;;;;;;;7.97;6.88;;;14.40;99.90;;;;;;5080873;28;20048;-83
2023/08/27 06:18:04;;;;;;;7.63;6.88;;;14.40;99.90;;;;;;5070283;28;20048;-83
2023/08/27 06:20:30;;;;;;;8.40;7.00;;;14.30;99.90;;;;;;5070346;28;20051;-82
2023/08/27 06:22:57;;;;;;;7.78;6.97;;;14.30;99.90;;;;;;5071534;28;20186;-83
2023/08/27 06:25:23;;;;;;;8.48;7.25;;;14.30;99.90;;;;;;5070351;28;20048;-83
2023/08/27 06:27:50;;;;;;;8.57;7.30;;;14.30;99.90;;;;;;5070789;28;20059;-82
2023/08/27 06:30:16;;;;;;;8.15;7.30;;;14.30;99.90;;;;;;5070022;28;20071;-83
2023/08/27 06:32:41;;;;;;;7.97;7.18;;;14.20;99.90;;;;;;5069266;28;20032;-83
2023/08/27 06:35:09;;;;;;;9.25;7.55;;;14.20;99.90;;;;;;5082944;28;20139;-83
2023/08/27 06:37:35;;;;;;;8.65;7.35;;;14.20;99.90;;;;;;5071292;28;20070;-83
2023/08/27 06:40:00;;;;;;;10.98;6.95;;;14.20;99.90;;;;;;5070190;28;20587;-83
2023/08/27 06:42:26;;;;;;;8.15;7.25;;;14.20;99.90;;;;;;5071103;28;20056;-83
2023/08/27 06:44:51;;;;;;;9.30;6.80;;;14.30;99.90;;;;;;5070733;28;20056;-83
2023/08/27 06:47:17;;;;;;;10.02;7.40;;;14.30;99.90;;;;;;5070905;28;20049;-83
2023/08/27 06:49:43;;;;;;;10.80;6.50;;;14.20;99.90;;;;;;5081744;28;20582;-83
2023/08/27 06:52:09;;;;;;;7.70;5.90;;;14.30;99.90;;;;;;5076542;28;20040;-82
2023/08/27 06:54:35;;;;;;;7.78;6.60;;;14.20;99.90;;;;;;5089673;28;20166;-82
2023/08/27 06:57:00;;;;;;;8.75;6.50;;;14.30;99.90;;;;;;5089657;28;20435;-84
2023/08/27 06:59:26;;;;;;;9.27;6.70;;;14.30;99.90;;;;;;5072524;28;20048;-83
2023/08/27 07:01:51;;;;;;;7.63;6.30;;;14.40;99.90;;;;;;5072626;28;20120;-83
2023/08/27 07:04:17;;;;;;;7.05;5.88;;;14.40;99.90;;;;;;5090897;28;20066;-84
2023/08/27 07:06:43;;;;;;;7.07;5.97;;;14.40;99.90;;;;;;5068064;28;20410;-83
2023/08/27 07:09:08;;;;;;;7.07;6.05;;;14.50;99.90;;;;;;5078143;28;20044;-83
2023/08/27 07:11:35;;;;;;;6.32;5.80;;;14.40;99.90;;;;;;5061075;28;20044;-83
2023/08/27 07:14:01;;;;;;;7.30;5.88;;;14.50;99.90;;;;;;5088611;28;20561;-83
2023/08/27 07:16:26;;;;;;;6.00;5.40;;;14.50;99.90;;;;;;5090420;28;20131;-83
2023/08/27 07:18:55;;;;;;;7.43;5.40;;;14.50;99.90;;;;;;5072857;28;20048;-83
2023/08/27 07:21:21;;;;;;;6.57;5.78;;;14.40;99.90;;;;;;5088598;28;20393;-83
2023/08/27 07:23:46;;;;;;;5.55;5.00;;;14.40;99.90;;;;;;5089998;28;20105;-83
2023/08/27 07:26:12;;;;;;;5.72;5.22;;;14.40;99.90;;;;;;5088592;28;20051;-83
2023/08/27 07:28:37;;;;;;;5.32;4.93;;;14.40;99.90;;;;;;5090498;28;20414;-83
2023/08/27 07:31:04;;;;;;;5.80;5.22;;;14.40;99.90;;;;;;5077547;28;20044;-84
2023/08/27 07:33:29;;;;;;;5.70;4.75;;;14.40;99.90;;;;;;5068166;28;20102;-83
2023/08/27 07:35:55;;;;;;;5.28;4.78;;;14.50;99.90;;;;;;5073233;28;20049;-84
2023/08/27 07:38:22;;;;;;;6.25;5.00;;;14.60;99.90;;;;;;5077957;28;20040;-83
2023/08/27 07:40:47;;;;;;;5.10;4.63;;;14.70;99.90;;;;;;5071957;28;20476;-84
2023/08/27 07:43:13;;;;;;;5.70;5.20;;;14.80;99.90;;;;;;5069210;28;20578;-83
2023/08/27 07:45:39;;;;;;;5.63;4.50;;;15.00;99.90;;;;;;5069519;28;20392;-83
2023/08/27 07:48:05;;;;;;;5.25;4.75;;;15.30;99.90;;;;;;5051993;28;20043;-84
2023/08/27 07:50:30;;;;;;;5.47;4.32;;;15.50;99.90;;;;;;5068290;28;20046;-85
2023/08/27 07:52:56;;;;;;;4.32;3.92;;;15.60;99.90;;;;;;5069486;28;20093;-83
2023/08/27 07:55:21;;;;;;;3.97;3.67;;;15.60;99.90;;;;;;5079458;28;20484;-83
2023/08/27 07:57:47;;;;;;;5.35;3.90;;;15.60;99.90;;;;;;5089728;28;20039;-83
2023/08/27 08:00:16;;;;;;;5.78;3.63;;;15.70;99.90;;;;;;5089318;28;20043;-83
2023/08/27 08:02:41;;;;;;;3.90;3.50;;;15.80;99.90;;;;;;5089822;28;20135;-83
2023/08/27 08:05:07;;;;;;;3.45;3.15;;;15.90;99.90;;;;;;5088127;28;20135;-83
2023/08/27 08:07:35;;;;;;;3.30;3.00;;;16.00;99.90;;;;;;5086899;28;20040;-83
2023/08/27 08:10:00;;;;;;;5.28;3.53;;;16.10;99.90;;;;;;5084125;28;20556;-83
2023/08/27 08:12:26;;;;;;;3.15;2.80;;;16.30;99.90;;;;;;5077081;28;20048;-82
2023/08/27 08:14:52;;;;;;;4.07;3.20;;;16.30;99.90;;;;;;5066693;28;20033;-81
2023/08/27 08:17:18;;;;;;;3.47;3.05;;;16.40;99.90;;;;;;5065930;28;20055;-83
2023/08/27 08:19:43;;;;;;;4.85;2.80;;;16.40;99.90;;;;;;5066120;28;20048;-82
2023/08/27 08:22:09;;;;;;;4.13;2.90;;;16.50;99.90;;;;;;5067724;28;20040;-83
2023/08/27 08:24:35;;;;;;;3.55;3.13;;;16.70;99.90;;;;;;5066649;28;20041;-82
2023/08/27 08:27:02;;;;;;;4.43;2.72;;;16.80;99.90;;;;;;5068080;28;20041;-82
2023/08/27 08:29:30;;;;;;;5.25;3.20;;;16.90;99.90;;;;;;5068102;28;20091;-82
2023/08/27 08:31:57;;;;;;;3.58;3.15;;;16.90;99.90;;;;;;5066682;28;20076;-82
2023/08/27 08:34:23;;;;;;;3.63;2.95;;;17.00;99.90;;;;;;5068507;28;20048;-81
2023/08/27 08:36:50;;;;;;;4.50;3.10;;;17.00;99.90;;;;;;5072692;28;20097;-83
2023/08/27 08:39:16;;;;;;;5.43;3.28;;;17.00;99.90;;;;;;5068330;28;20053;-81
2023/08/27 08:41:46;;;;;;;3.72;2.80;;;17.10;99.90;;;;;;5051784;28;20053;-82
2023/08/27 08:44:23;;;;;;;6.53;3.25;;;17.20;99.90;;;;;;5078161;28;20370;-83
2023/08/27 08:46:51;;;;;;;2.97;2.63;;;17.20;99.90;;;;;;5080868;28;20040;-82
2023/08/27 08:49:21;;;;;;;4.05;2.80;;;17.40;99.90;;;;;;5077458;28;20516;-82
2023/08/27 08:51:49;;;;;;;2.92;2.72;;;17.60;99.90;;;;;;5065010;28;20044;-83
2023/08/27 08:54:18;;;;;;;3.63;3.10;;;17.60;99.90;;;;;;5068298;28;20524;-83
2023/08/27 08:56:48;;;;;;;3.45;2.92;;;17.70;99.90;;;;;;5068613;28;20118;-82
2023/08/27 08:59:14;;;;;;;4.50;2.90;;;17.80;99.90;;;;;;5071513;28;20040;-84
2023/08/27 09:01:40;;;;;;;4.78;3.00;;;17.90;99.90;;;;;;5063779;28;20051;-82
2023/08/27 09:04:07;;;;;;;3.17;2.88;;;18.10;99.90;;;;;;5067329;28;20907;-83
2023/08/27 09:06:34;;;;;;;4.43;3.05;;;18.20;99.90;;;;;;5077391;28;20040;-81
2023/08/27 09:09:00;;;;;;;3.38;2.95;;;18.30;99.90;;;;;;5068854;28;20059;-84
2023/08/27 09:11:27;;;;;;;5.15;3.33;;;18.40;99.90;;;;;;5072139;28;20111;-82
2023/08/27 09:13:54;;;;;;;3.33;2.83;;;18.40;99.90;;;;;;5077672;28;20048;-83
2023/08/27 09:16:20;;;;;;;4.30;3.00;;;18.50;99.90;;;;;;5066206;28;20064;-83
2023/08/27 09:18:45;;;;;;;4.07;3.13;;;18.50;99.90;;;;;;5084103;28;20044;-82
2023/08/27 09:21:11;;;;;;;3.33;3.03;;;18.60;99.90;;;;;;5084663;28;20081;-84
2023/08/27 09:23:37;;;;;;;3.83;3.20;;;18.60;99.90;;;;;;5066883;28;20041;-83
2023/08/27 09:26:04;;;;;;;3.13;2.80;;;18.70;99.90;;;;;;5067210;28;20037;-84
2023/08/27 09:28:29;;;;;;;4.15;3.40;;;18.70;99.90;;;;;;5074400;28;20040;-85
2023/08/27 09:30:55;;;;;;;3.20;2.90;;;18.90;99.90;;;;;;5086460;28;20044;-84
2023/08/27 09:33:41;;;;;;;3.38;3.08;;;18.90;99.90;;;;;;5086201;28;20077;-84
2023/08/27 09:36:08;;;;;;;4.55;3.20;;;19.00;99.90;;;;;;5078968;28;20048;-83
2023/08/27 09:38:34;;;;;;;3.33;2.97;;;19.20;99.90;;;;;;5082240;28;20076;-83
2023/08/27 09:41:16;;;;;;;5.78;3.47;;;19.30;99.90;;;;;;5080716;28;20044;-84
2023/08/27 09:43:55;;;;;;;3.65;3.35;;;19.30;99.90;;;;;;5074406;28;20098;-84
2023/08/27 09:46:20;;;;;;;3.40;3.10;;;19.40;99.90;;;;;;5066172;28;20178;-84
2023/08/27 09:49:00;;;;;;;4.90;3.13;;;19.40;99.90;;;;;;5074365;28;20086;-83
2023/08/27 09:51:29;;;;;;;5.82;3.25;;;19.50;99.90;;;;;;5078209;28;20530;-84
2023/08/27 09:53:55;;;;;;;5.20;3.65;;;19.60;99.90;;;;;;5071488;28;20524;-84
2023/08/27 09:56:25;;;;;;;4.47;3.33;;;19.70;99.90;;;;;;5067331;28;20048;-85
2023/08/27 09:58:52;;;;;;;4.20;3.80;;;19.90;99.90;;;;;;5066483;28;20486;-85
2023/08/27 10:01:18;;;;;;;6.70;3.70;;;20.10;99.90;;;;;;5066334;28;20139;-83
2023/08/27 10:03:46;;;;;;;3.80;3.50;;;20.10;99.90;;;;;;5065588;28;20052;-84
2023/08/27 10:06:12;;;;;;;4.55;3.33;;;20.30;99.90;;;;;;5070965;28;20052;-85
2023/08/27 10:08:54;;;;;;;3.95;3.33;;;20.20;99.90;;;;;;5070230;28;20102;-83
2023/08/27 10:11:22;;;;;;;3.95;3.15;;;20.20;99.90;;;;;;5069585;28;20414;-85
2023/08/27 10:13:48;;;;;;;3.08;2.88;;;20.10;99.90;;;;;;5075718;28;20040;-85
2023/08/27 10:16:14;;;;;;;4.28;2.97;;;20.00;99.90;;;;;;5075387;28;20044;-85
2023/08/27 10:18:41;;;;;;;4.35;3.08;;;20.00;99.90;;;;;;5082816;28;20048;-84
2023/08/27 10:21:08;;;;;;;5.57;3.45;;;20.20;99.90;;;;;;5084655;28;20394;-85
2023/08/27 10:23:37;;;;;;;4.72;3.40;;;20.30;99.90;;;;;;5069800;28;20369;-85
2023/08/27 10:26:03;;;;;;;4.95;3.28;;;20.20;99.90;;;;;;5069828;28;20075;-84
2023/08/27 10:28:30;;;;;;;3.20;2.90;;;20.20;99.90;;;;;;5079597;28;20052;-86
2023/08/27 10:30:57;;;;;;;4.05;3.10;;;20.20;99.90;;;;;;5088641;28;20059;-84
2023/08/27 10:33:22;;;;;;;3.72;2.50;;;20.20;99.90;;;;;;5089179;28;20134;-85
2023/08/27 10:35:51;;;;;;;2.70;2.50;;;20.20;99.90;;;;;;5072599;28;20562;-84
2023/08/27 10:38:17;;;;;;;3.17;2.65;;;20.10;99.90;;;;;;5086931;28;20139;-84
2023/08/27 10:40:44;;;;;;;4.43;2.42;;;20.20;99.90;;;;;;5089897;28;20059;-85
2023/08/27 10:43:20;;;;;;;3.85;2.28;;;20.20;99.90;;;;;;5074429;28;20056;-83
2023/08/27 10:45:48;;;;;;;2.45;2.25;;;20.20;99.90;;;;;;5082044;28;20062;-83
2023/08/27 10:48:26;;;;;;;4.50;2.50;;;20.10;99.90;;;;;;5088604;28;20036;-83
2023/08/27 10:51:08;;;;;;;3.45;2.22;;;20.00;99.90;;;;;;5075823;28;20028;-82
2023/08/27 10:53:53;;;;;;;2.60;2.40;;;20.10;99.90;;;;;;5087711;28;20672;-82
2023/08/27 10:56:26;;;;;;;4.05;2.22;;;20.10;99.90;;;;;;5085274;28;20067;-83
2023/08/27 10:58:52;;;;;;;3.08;2.30;;;20.10;99.90;;;;;;5069249;28;20051;-83
2023/08/27 11:01:18;;;;;;;3.10;2.08;;;20.10;99.90;;;;;;5069983;28;20414;-82
2023/08/27 11:03:59;;;;;;;2.88;1.90;;;20.30;99.90;;;;;;5067277;28;20064;-83
2023/08/27 11:06:45;;;;;;;2.50;1.80;;;20.30;99.90;;;;;;5084615;28;20066;-83
2023/08/27 11:09:17;;;;;;;1.90;1.63;;;20.00;99.90;;;;;;5071765;28;20398;-83
2023/08/27 11:11:54;;;;;;;;;;;19.70;99.90;;;;;;5051938;28;20050;-83
2023/08/27 11:14:21;;;;;;;2.10;1.90;;;19.40;99.90;;;;;;5069093;28;19981;-83
2023/08/27 11:16:54;;;;;;;1.90;1.70;;;19.20;99.90;;;;;;5081963;28;20044;-83
2023/08/27 11:19:31;;;;;;;2.55;2.25;;;19.10;99.90;;;;;;5088283;28;20123;-84
2023/08/27 11:22:08;;;;;;;4.30;2.65;;;19.00;99.90;;;;;;5070577;28;20045;-83
2023/08/27 11:24:35;;;;;;;4.00;3.00;;;19.00;99.90;;;;;;5071379;28;20043;-83
2023/08/27 11:27:02;;;;;;;3.08;2.75;;;19.00;99.90;;;;;;5075538;28;20078;-83
2023/08/27 11:29:28;;;;;;;4.00;3.03;;;19.20;99.90;;;;;;5074286;28;20123;-84
2023/08/27 11:31:56;;;;;;;3.70;3.22;;;19.30;99.90;;;;;;5082820;28;20048;-84
2023/08/27 11:34:22;;;;;;;4.70;3.53;;;19.40;99.90;;;;;;5083949;28;20445;-83
2023/08/27 11:36:54;;;;;;;5.70;4.50;;;19.40;99.90;;;;;;5072813;28;20045;-83
2023/08/27 11:39:20;;;;;;;4.20;3.72;;;19.40;99.90;;;;;;5074557;28;20052;-83
2023/08/27 11:41:46;;;;;;;5.82;4.45;;;19.30;99.90;;;;;;5074717;28;20060;-84
2023/08/27 11:44:12;;;;;;;5.13;4.57;;;19.20;99.90;;;;;;5076669;28;20036;-82
2023/08/27 11:46:39;;;;;;;5.75;4.50;;;19.00;99.90;;;;;;5073997;28;20767;-82
2023/08/27 11:49:05;;;;;;;6.55;4.63;;;18.70;99.90;;;;;;5076347;28;20078;-81
2023/08/27 11:51:32;;;;;;;7.70;5.15;;;18.50;99.90;;;;;;5073548;28;20434;-83
2023/08/27 11:53:58;;;;;;;4.13;3.72;;;18.10;99.90;;;;;;5075482;28;20047;-82
2023/08/27 11:56:25;;;;;;;5.15;3.78;;;17.80;99.90;;;;;;5077675;28;20036;-83
2023/08/27 11:58:54;;;;;;;7.03;4.70;;;17.40;99.90;;;;;;5083621;28;20077;-82
2023/08/27 12:01:20;;;;;;;7.30;4.30;;;16.90;99.90;;;;;;5088529;28;20088;-83
2023/08/27 12:03:51;;;;;;;6.97;3.25;;;16.50;99.90;;;;;;5068208;28;20044;-82
2023/08/27 12:06:24;;;;;;;5.03;3.88;;;16.20;99.90;;;;;;5068502;28;20094;-81
2023/08/27 12:08:54;;;;;;;5.63;4.47;;;16.00;99.90;;;;;;5069946;28;20490;-81
2023/08/27 12:11:26;;;;;;;5.97;5.40;;;15.90;99.90;;;;;;5078225;28;20398;-81
2023/08/27 12:13:58;;;;;;;5.32;4.93;;;15.80;99.90;;;;;;5067976;28;20052;-81
2023/08/27 12:16:31;;;;;;;5.45;4.78;;;15.80;99.90;;;;;;5071650;28;20163;-82
2023/08/27 12:19:08;;;;;;;6.15;4.28;;;15.90;99.90;;;;;;5074704;28;20043;-83
2023/08/27 12:21:47;;;;;;;4.93;4.03;;;16.10;99.90;;;;;;5086561;28;20082;-83
2023/08/27 12:24:35;;;;;;;5.25;4.75;;;16.40;99.90;;;;;;5072073;28;20051;-83
2023/08/27 12:27:09;;;;;;;7.80;6.20;;;16.70;99.90;;;;;;5067902;28;20070;-83
2023/08/27 12:29:45;;;;;;;6.47;5.90;;;17.00;99.90;;;;;;5067021;28;20099;-81
2023/08/27 12:32:19;;;;;;;6.03;5.40;;;17.30;99.90;;;;;;5066512;28;20109;-81
2023/08/27 12:34:52;;;;;;;5.03;4.55;;;17.70;99.90;;;;;;5066573;28;20049;-82
2023/08/27 12:37:20;;;;;;;6.32;5.20;;;18.00;99.90;;;;;;5074782;28;20047;-82
2023/08/27 12:39:46;;;;;;;4.35;4.00;;;18.60;99.90;;;;;;5067717;28;20048;-82
2023/08/27 12:42:14;;;;;;;3.90;3.38;;;18.50;99.90;;;;;;5067880;28;20525;-82
2023/08/27 12:44:40;;;;;;;3.50;3.20;;;18.40;99.90;;;;;;5079208;28;20433;-82
2023/08/27 12:47:06;;;;;;;3.00;2.70;;;18.40;99.90;;;;;;5079828;28;20040;-82
2023/08/27 12:49:33;;;;;;;3.42;2.88;;;18.40;99.90;;;;;;5064945;28;20052;-82